Weather History for Socorro, NM

Change the Weather History Date:

Thursday, June 13, 2013

  Actual Average Record
Temperature  
Mean Temperature 86 °F -  
Max Temperature 101 °F 90 °F 101 °F (2013)
Min Temperature 71 °F 52 °F 53 °F (2011)
Cooling Degree Days 21    
Growing Degree Days 36 (Base 50)    
Moisture  
Dew Point 34 °F    
Average Humidity 17    
Maximum Humidity 31    
Minimum Humidity 7    
Precipitation  
Precipitation 0.00 in - - ()
Sea Level Pressure  
Sea Level Pressure 30.06 in    
Wind  
Wind Speed 8 mph (South)    
Max Wind Speed 26 mph    
Max Gust Speed 32 mph    
Visibility 10 miles    
Events      
Averages and records for this station are not official NWS values.
T = Trace of Precipitation, MM = Missing Value Source: NWS Daily Summary

Daily Weather History Graph

Daily Weather History Graph

Search for Another Location

Airport:

Trip Planner

Search our weather history database for the weather conditions in past years. The results will help you decide how hot, cold, wet, or windy it might be!

Date:

Astronomy

Jun. 13, 2013 Rise Set
Actual Time 5:55 AM MDT 8:19 PM MDT
Civil Twilight 5:26 AM MDT 8:49 PM MDT
Nautical Twilight 4:50 AM MDT 9:24 PM MDT
Astronomical Twilight 4:11 AM MDT 10:04 PM MDT
Moon 10:24 AM MDT (6/13) 11:39 PM MDT (6/13)
Length of Visible Light 15h 22m
Length of Day
14h 24m
Waxing Crescent, 22% of the Moon is Illuminated
Jun 13
Waxing Crescent
Jun 16
First Quarter
Jun 23
Full
Jun 29
Last Quarter
Jul 8
New

Hourly Weather History & Observations

Time (MDT) Temp. Dew Point Humidity Pressure Visibility Wind Dir Wind Speed Gust Speed Precip Events Conditions
12:15 AM 85.1 °F 30.7 °F 14% 30.07 in 10.0 mi South 5.8 mph - N/A   Clear
12:35 AM 81.5 °F 30.7 °F 16% 30.08 in 10.0 mi WSW 6.9 mph - N/A   Clear
12:55 AM 83.5 °F 34.3 °F 17% 30.08 in 10.0 mi SSW 5.8 mph - N/A   Clear
1:15 AM 82.6 °F 34.9 °F 18% 30.09 in 10.0 mi SSE 6.9 mph - N/A   Clear
1:35 AM 79.5 °F 33.8 °F 19% 30.08 in 10.0 mi South 5.8 mph - N/A   Clear
1:55 AM 79.2 °F 33.3 °F 19% 30.08 in 10.0 mi South 4.6 mph - N/A   Clear
2:15 AM 76.1 °F 32.5 °F 20% 30.08 in 10.0 mi South 6.9 mph - N/A   Clear
2:35 AM 78.1 °F 34.2 °F 20% 30.08 in 10.0 mi South 6.9 mph - N/A   Clear
2:55 AM 75.9 °F 33.8 °F 22% 30.08 in 10.0 mi South 8.1 mph - N/A   Clear
3:15 AM 75.4 °F 34.0 °F 22% 30.07 in 10.0 mi South 5.8 mph - N/A   Clear
3:35 AM 74.5 °F 34.2 °F 23% 30.08 in 10.0 mi SSW 4.6 mph - N/A   Clear
3:55 AM 74.1 °F 34.3 °F 23% 30.08 in 10.0 mi Calm Calm - N/A   Clear
4:15 AM 75.0 °F 35.6 °F 24% 30.08 in 10.0 mi South 4.6 mph - N/A   Clear
4:35 AM 74.5 °F 36.5 °F 25% 30.08 in 10.0 mi South 6.9 mph - N/A   Clear
4:55 AM 74.1 °F 36.7 °F 26% 30.08 in 10.0 mi SSW 8.1 mph - N/A   Clear
5:15 AM 73.4 °F 37.4 °F 27% 30.09 in 10.0 mi South 6.9 mph - N/A   Clear
5:35 AM 73.0 °F 38.1 °F 28% 30.10 in 10.0 mi South 5.8 mph - N/A   Clear
5:55 AM 71.1 °F 38.3 °F 30% 30.10 in 10.0 mi SSE 6.9 mph - N/A   Clear
6:15 AM 71.1 °F 38.5 °F 31% 30.11 in 10.0 mi South 6.9 mph - N/A   Clear
6:35 AM 71.8 °F 39.0 °F 30% 30.11 in 10.0 mi SSW 6.9 mph - N/A   Clear
6:55 AM 73.9 °F 39.4 °F 29% 30.12 in 10.0 mi South 6.9 mph - N/A   Clear
7:15 AM 76.3 °F 42.4 °F 30% 30.12 in 10.0 mi South 8.1 mph - N/A   Clear
7:35 AM 77.2 °F 41.9 °F 28% 30.13 in 10.0 mi South 6.9 mph - N/A   Clear
7:55 AM 78.1 °F 41.0 °F 27% 30.13 in 10.0 mi SSE 8.1 mph - N/A   Clear
8:15 AM 79.3 °F 40.8 °F 25% 30.13 in 10.0 mi SSE 9.2 mph - N/A   Clear
8:35 AM 80.6 °F 40.1 °F 24% 30.13 in 10.0 mi SSE 10.4 mph - N/A   Clear
8:55 AM 82.2 °F 39.7 °F 22% 30.13 in 10.0 mi SSE 9.2 mph - N/A   Clear
9:15 AM 83.8 °F 39.9 °F 21% 30.13 in 10.0 mi SSE 8.1 mph - N/A   Clear
9:35 AM 86.0 °F 40.1 °F 20% 30.13 in 10.0 mi SSE 8.1 mph - N/A   Clear
9:55 AM 89.6 °F 40.3 °F 18% 30.12 in 10.0 mi SE 9.2 mph - N/A   Clear
10:15 AM 88.9 °F 40.8 °F 19% 30.12 in 10.0 mi SE 12.7 mph - N/A   Clear
10:35 AM 90.5 °F 39.6 °F 17% 30.12 in 10.0 mi SE 12.7 mph - N/A   Clear
10:55 AM 91.2 °F 38.8 °F 16% 30.12 in 10.0 mi SE 15.0 mph - N/A   Clear
11:15 AM 92.1 °F 35.8 °F 14% 30.12 in 10.0 mi SSE 12.7 mph - N/A   Clear
11:35 AM 93.2 °F 35.6 °F 13% 30.11 in 10.0 mi SE 12.7 mph 17.3 mph N/A   Clear
11:55 AM 94.1 °F 36.9 °F 13% 30.11 in 10.0 mi SE 10.4 mph - N/A   Clear
12:15 PM 94.3 °F 36.5 °F 13% 30.10 in 10.0 mi SE 10.4 mph 17.3 mph N/A   Clear
12:35 PM 95.5 °F 35.1 °F 12% 30.10 in 10.0 mi South 6.9 mph 16.1 mph N/A   Clear
12:55 PM 96.8 °F 34.2 °F 11% 30.08 in 10.0 mi South 6.9 mph - N/A   Clear
1:15 PM 96.8 °F 36.1 °F 12% 30.07 in 10.0 mi SSE 10.4 mph - N/A   Clear
1:35 PM 98.1 °F 36.3 °F 12% 30.06 in 10.0 mi SSE 12.7 mph 19.6 mph N/A   Clear
1:55 PM 99.0 °F 29.5 °F 9% 30.05 in 10.0 mi SSE 6.9 mph - N/A   Clear
2:15 PM 99.3 °F 32.9 °F 10% 30.04 in 10.0 mi East 5.8 mph - N/A   Clear
2:35 PM 100.2 °F 32.5 °F 9% 30.03 in 10.0 mi South 10.4 mph 16.1 mph N/A   Clear
2:55 PM 101.7 °F 32.0 °F 9% 30.01 in 10.0 mi South 11.5 mph 17.3 mph N/A   Clear
3:15 PM 100.2 °F 30.0 °F 8% 30.00 in 10.0 mi ESE 9.2 mph - N/A   Clear
3:35 PM 99.5 °F 29.1 °F 8% 29.99 in 10.0 mi SSE 3.5 mph - N/A   Clear
3:55 PM 100.8 °F 25.9 °F 7% 29.98 in 10.0 mi ESE 6.9 mph - N/A   Clear
4:15 PM 100.0 °F 28.9 °F 8% 29.97 in 10.0 mi SE 6.9 mph - N/A   Clear
4:35 PM 98.6 °F 29.1 °F 9% 29.97 in 10.0 mi ESE 6.9 mph - N/A   Clear
4:55 PM 99.0 °F 27.3 °F 8% 29.97 in 10.0 mi SW 11.5 mph - N/A   Clear
5:15 PM 98.4 °F 26.2 °F 8% 29.96 in 10.0 mi SW 8.1 mph - N/A   Clear
5:35 PM 98.2 °F 23.7 °F 7% 29.96 in 10.0 mi SSW 11.5 mph - N/A   Clear
5:55 PM 97.9 °F 23.0 °F 7% 29.95 in 10.0 mi SSW 4.6 mph - N/A   Clear
6:15 PM 97.0 °F 24.1 °F 7% 29.95 in 10.0 mi West 5.8 mph - N/A   Clear
6:35 PM 93.7 °F 29.7 °F 10% 29.95 in 10.0 mi WNW 17.3 mph 32.2 mph N/A   Clear
6:55 PM 92.7 °F 30.2 °F 11% 29.97 in 10.0 mi WNW 12.7 mph 21.9 mph N/A   Clear
7:15 PM 91.8 °F 30.4 °F 11% 29.95 in 10.0 mi West 26.5 mph 32.2 mph N/A   Scattered Clouds
7:35 PM 90.9 °F 30.7 °F 12% 29.99 in 10.0 mi NW 18.4 mph 23.0 mph N/A   Clear
7:55 PM 90.5 °F 30.2 °F 12% 30.02 in 10.0 mi NNE 13.8 mph 17.3 mph N/A   Clear
8:15 PM 90.3 °F 30.2 °F 12% 30.02 in 10.0 mi ENE 16.1 mph 29.9 mph N/A   Clear
8:35 PM 87.6 °F 31.6 °F 13% 30.02 in 10.0 mi NE 13.8 mph 23.0 mph N/A   Clear
8:55 PM 86.5 °F 31.6 °F 14% 30.02 in 10.0 mi North 8.1 mph - N/A   Clear
9:15 PM 88.0 °F 30.2 °F 13% 30.03 in 10.0 mi NNW 8.1 mph - N/A   Clear
9:35 PM 87.4 °F 29.8 °F 13% 30.03 in 10.0 mi NNW 8.1 mph - N/A   Clear
9:55 PM 86.2 °F 29.8 °F 13% 30.03 in 10.0 mi NNW 6.9 mph - N/A   Clear
10:15 PM 85.5 °F 30.0 °F 14% 30.03 in 10.0 mi NW 4.6 mph - N/A   Clear
10:35 PM 83.7 °F 29.8 °F 14% 30.04 in 10.0 mi East 4.6 mph - N/A   Clear
10:55 PM 81.5 °F 32.0 °F 17% 30.04 in 10.0 mi Calm Calm - N/A   Clear
11:15 PM 82.2 °F 36.0 °F 19% 30.05 in 10.0 mi ENE 5.8 mph - N/A   Clear
11:35 PM 82.0 °F 39.7 °F 22% 30.05 in 10.0 mi North 3.5 mph - N/A   Clear
11:55 PM 81.5 °F 37.0 °F 20% 30.05 in 10.0 mi Calm Calm - N/A   Clear